Time;durP1;ratioP1;P1;durP2;ratioP2;P2;SDS_P1;SDS_P2;PMS_P1;PMS_P2;Temp;Humidity;BMP_temperature;BMP_pressure;BME280_temperature;BME280_humidity;BME280_pressure;Samples;Min_cycle;Max_cycle;Signal;HPM_P1;HPM_P2
2021/12/14 00:00:31;;;;;;;15.48;8.48;;;;;;;7.23;83.16;102654.31;1029112;28;20506;-83
2021/12/14 00:01:06;;;;;;;12.57;7.72;;;;;;;7.21;83.70;102646.53;1025723;29;20047;-83
2021/12/14 00:01:44;;;;;;;12.80;8.18;;;;;;;7.24;83.71;102646.75;1033399;28;20053;-83
2021/12/14 00:02:15;;;;;;;10.55;6.97;;;;;;;7.24;82.99;102641.63;1028810;28;20461;-83
2021/12/14 00:02:47;;;;;;;10.75;7.40;;;;;;;7.26;83.16;102646.84;1029123;28;20046;-83
2021/12/14 00:03:20;;;;;;;12.85;7.13;;;;;;;7.23;83.31;102646.63;1028838;28;20070;-84
2021/12/14 00:03:55;;;;;;;11.30;7.22;;;;;;;7.22;83.52;102638.06;1029098;28;20046;-83
2021/12/14 00:04:31;;;;;;;11.30;7.43;;;;;;;7.21;83.60;102646.53;1032974;28;20434;-83
2021/12/14 00:05:03;;;;;;;14.57;8.00;;;;;;;7.23;83.74;102649.19;1028671;28;20054;-83
2021/12/14 00:05:36;;;;;;;13.02;7.70;;;;;;;7.23;83.20;102639.84;1029572;28;20043;-83
2021/12/14 00:06:09;;;;;;;14.77;7.50;;;;;;;7.25;83.55;102640.84;1029630;28;20054;-83
2021/12/14 00:06:41;;;;;;;14.57;8.13;;;;;;;7.26;83.38;102640.03;1028991;28;20078;-83
2021/12/14 00:07:14;;;;;;;11.27;8.20;;;;;;;7.27;83.28;102640.94;1024537;29;20086;-83
2021/12/14 00:07:46;;;;;;;12.73;7.78;;;;;;;7.28;83.07;102638.47;1028749;28;20039;-84
2021/12/14 00:08:18;;;;;;;11.48;7.82;;;;;;;7.25;83.22;102637.38;1025515;29;20051;-83
2021/12/14 00:08:56;;;;;;;10.52;7.53;;;;;;;7.26;83.30;102629.78;1026472;29;20058;-83
2021/12/14 00:09:33;;;;;;;15.50;7.93;;;;;;;7.24;83.47;102633.94;1022776;29;20050;-83
2021/12/14 00:13:51;;;;;;;12.10;7.47;;;;;;;7.14;84.40;102635.00;1038766;28;20040;-83
2021/12/14 00:15:03;;;;;;;15.90;8.68;;;;;;;7.13;84.29;102627.19;1027837;28;20050;-83
2021/12/14 00:15:19;;;;;;;15.48;7.80;;;;;;;7.14;84.03;102626.41;1023796;28;20047;-83
2021/12/14 00:15:51;;;;;;;13.63;8.68;;;;;;;7.12;84.42;102630.53;1024192;29;20051;-82
2021/12/14 00:16:23;;;;;;;14.90;8.27;;;;;;;7.13;84.41;102627.19;1024072;28;20053;-83
2021/12/14 00:16:58;;;;;;;12.25;7.95;;;;;;;7.15;84.35;102631.63;1024047;29;20407;-83
2021/12/14 00:17:39;;;;;;;13.18;9.05;;;;;;;7.15;84.06;102623.94;1028320;28;20528;-83
2021/12/14 00:18:13;;;;;;;10.38;7.28;;;;;;;7.18;83.84;102625.84;1020395;29;20047;-83
2021/12/14 00:18:45;;;;;;;11.70;8.23;;;;;;;7.18;83.77;102625.84;1024335;28;20113;-83
2021/12/14 00:19:17;;;;;;;11.70;8.88;;;;;;;7.20;83.86;102625.94;1020297;29;20047;-83
2021/12/14 00:19:50;;;;;;;14.70;8.70;;;;;;;7.21;84.03;102628.59;1024209;28;20086;-83
2021/12/14 00:20:25;;;;;;;13.30;8.82;;;;;;;7.19;84.18;102632.72;1020326;29;20084;-83
2021/12/14 00:25:52;;;;;;;15.27;8.55;;;;;;;7.12;84.34;102635.66;1036512;28;20393;-84
2021/12/14 00:26:23;;;;;;;12.88;8.38;;;;;;;7.10;84.24;102637.25;1027993;28;20146;-83
2021/12/14 00:27:04;;;;;;;12.50;8.23;;;;;;;7.11;84.84;102631.34;1028010;28;20050;-83
2021/12/14 00:27:36;;;;;;;15.15;8.70;;;;;;;7.10;84.88;102632.13;1020101;28;20048;-83
2021/12/14 00:28:26;;;;;;;13.07;8.23;;;;;;;7.15;84.44;102630.75;1024136;29;20047;-83
2021/12/14 00:28:57;;;;;;;15.88;8.75;;;;;;;7.11;84.55;102636.47;1040272;28;20045;-83
2021/12/14 00:29:32;;;;;;;11.80;7.97;;;;;;;7.20;84.23;102637.06;1028227;28;20055;-83
2021/12/14 00:30:04;;;;;;;13.50;8.00;;;;;;;7.20;83.80;102644.75;1020100;28;20488;-83
2021/12/14 00:30:37;;;;;;;14.18;8.48;;;;;;;7.21;84.22;102630.28;1024078;29;20048;-83
2021/12/14 00:31:14;;;;;;;12.50;8.07;;;;;;;7.25;84.27;102638.28;1020087;29;20043;-83
2021/12/14 00:31:46;;;;;;;11.25;8.38;;;;;;;7.25;84.47;102643.41;1024128;29;20047;-83
2021/12/14 00:32:20;;;;;;;11.93;8.70;;;;;;;7.19;84.10;102640.41;1024027;29;20051;-83
2021/12/14 00:32:52;;;;;;;14.20;8.70;;;;;;;7.24;84.26;102640.72;1028011;28;20490;-83
2021/12/14 00:33:26;;;;;;;12.63;8.55;;;;;;;7.23;83.81;102632.16;1032069;28;20046;-84
2021/12/14 00:34:01;;;;;;;14.40;9.45;;;;;;;7.20;84.13;102629.38;1023987;29;20051;-84
2021/12/14 00:34:37;;;;;;;14.40;8.43;;;;;;;7.21;84.18;102635.41;1024297;29;20050;-83
2021/12/14 00:35:13;;;;;;;14.48;9.57;;;;;;;7.21;84.19;102636.28;1028198;28;20042;-84
2021/12/14 00:35:45;;;;;;;15.38;9.20;;;;;;;7.19;84.51;102637.84;1024065;29;20039;-83
2021/12/14 00:36:17;;;;;;;12.70;8.38;;;;;;;7.24;84.48;102638.16;1024029;28;20047;-83
2021/12/14 00:36:50;;;;;;;15.05;9.35;;;;;;;7.21;84.19;102631.16;1028100;28;20067;-84
2021/12/14 00:37:30;;;;;;;14.05;9.25;;;;;;;7.19;84.39;102640.41;1024217;28;20047;-83
2021/12/14 00:38:02;;;;;;;15.45;8.57;;;;;;;7.18;84.10;102632.63;1028335;28;20055;-83
2021/12/14 00:38:35;;;;;;;15.15;9.15;;;;;;;7.18;84.37;102636.09;1032366;28;20042;-84
2021/12/14 00:39:08;;;;;;;14.07;8.35;;;;;;;7.20;84.72;102634.50;1028173;28;20107;-83
2021/12/14 00:39:41;;;;;;;14.38;8.93;;;;;;;7.19;84.49;102632.72;1032061;28;20050;-83
2021/12/14 00:40:17;;;;;;;12.13;8.60;;;;;;;7.20;84.10;102629.38;1028253;28;20042;-83
2021/12/14 00:40:53;;;;;;;13.55;8.93;;;;;;;7.18;84.18;102630.97;1028313;28;20141;-83
2021/12/14 00:41:30;;;;;;;16.00;8.80;;;;;;;7.19;84.71;102627.59;1031988;28;20054;-83
2021/12/14 00:42:03;;;;;;;17.20;8.93;;;;;;;7.15;84.49;102630.75;1036079;28;20096;-84
2021/12/14 00:42:35;;;;;;;14.32;8.52;;;;;;;7.24;84.56;102621.13;1027937;28;20102;-83
2021/12/14 00:43:06;;;;;;;15.07;9.52;;;;;;;7.18;84.72;102622.38;1028264;28;20043;-83
2021/12/14 00:43:38;;;;;;;13.05;9.10;;;;;;;7.17;84.49;102629.19;1028179;28;20130;-84
2021/12/14 00:44:10;;;;;;;13.00;9.65;;;;;;;7.20;84.61;102631.06;1024174;29;20043;-83
2021/12/14 00:44:43;;;;;;;15.52;9.27;;;;;;;7.20;84.52;102626.81;1024092;29;20054;-83
2021/12/14 00:45:16;;;;;;;14.93;8.85;;;;;;;7.20;84.22;102629.38;1028423;28;20062;-84
2021/12/14 00:45:48;;;;;;;12.55;9.25;;;;;;;7.19;84.57;102629.28;1020156;29;20070;-83
2021/12/14 00:46:20;;;;;;;13.38;8.65;;;;;;;7.21;84.91;102628.59;1024140;29;20360;-83
2021/12/14 00:46:52;;;;;;;13.57;8.73;;;;;;;7.27;84.91;102634.13;1028279;28;20487;-84
2021/12/14 00:47:24;;;;;;;13.93;8.82;;;;;;;7.27;84.34;102635.81;1024199;29;20058;-84
2021/12/14 00:47:56;;;;;;;13.93;9.07;;;;;;;7.25;84.68;102628.03;1032211;28;20178;-84
2021/12/14 00:48:27;;;;;;;13.90;9.60;;;;;;;7.22;84.83;102635.50;1020090;29;20044;-84
2021/12/14 00:48:59;;;;;;;15.43;9.15;;;;;;;7.21;84.61;102636.28;1028092;28;20051;-84
2021/12/14 00:49:31;;;;;;;12.80;8.65;;;;;;;7.25;84.74;102642.50;1020458;28;20054;-84
2021/12/14 00:50:04;;;;;;;16.75;9.02;;;;;;;7.25;85.03;102640.84;1028266;28;20078;-84
2021/12/14 00:50:36;;;;;;;12.80;9.00;;;;;;;7.25;84.29;102643.41;1028193;28;20051;-83
2021/12/14 00:51:08;;;;;;;14.18;8.98;;;;;;;7.29;84.97;102650.50;1028110;28;20047;-83
2021/12/14 00:51:40;;;;;;;12.85;8.77;;;;;;;7.29;84.48;102637.69;1024081;29;20075;-84
2021/12/14 00:52:11;;;;;;;14.93;9.60;;;;;;;7.26;84.54;102649.41;1028150;28;20054;-84
2021/12/14 00:52:44;;;;;;;12.80;8.70;;;;;;;7.33;84.75;102641.34;1032150;28;20513;-84
2021/12/14 00:53:15;;;;;;;13.05;8.75;;;;;;;7.30;84.61;102647.16;1031973;28;20165;-84
2021/12/14 00:53:48;;;;;;;12.00;9.00;;;;;;;7.32;84.49;102649.81;1028182;28;20050;-83
2021/12/14 00:54:20;;;;;;;13.27;8.73;;;;;;;7.34;84.65;102648.25;1028325;28;20050;-84
2021/12/14 00:54:53;;;;;;;14.82;9.95;;;;;;;7.29;84.37;102650.50;1028281;28;20047;-83
2021/12/14 00:55:30;;;;;;;14.85;9.05;;;;;;;7.26;84.97;102647.72;1028143;28;20051;-83
2021/12/14 00:56:04;;;;;;;15.02;9.48;;;;;;;7.25;84.56;102648.53;1020151;29;20054;-83
2021/12/14 00:56:36;;;;;;;15.00;8.70;;;;;;;7.26;85.02;102650.28;1024149;29;20130;-84
2021/12/14 00:57:07;;;;;;;15.48;9.10;;;;;;;7.33;84.45;102645.59;1020140;29;20040;-84
2021/12/14 00:57:39;;;;;;;13.25;8.45;;;;;;;7.33;84.39;102653.28;1016245;29;20055;-83
2021/12/14 00:58:12;;;;;;;14.00;9.57;;;;;;;7.30;84.58;102647.16;1028072;28;20050;-84
2021/12/14 00:58:44;;;;;;;16.10;10.00;;;;;;;7.33;84.79;102651.59;1024176;28;20507;-83
2021/12/14 00:59:17;;;;;;;13.30;8.43;;;;;;;7.33;84.54;102650.72;1020124;29;20052;-83
2021/12/14 00:59:51;;;;;;;16.83;9.32;;;;;;;7.35;84.36;102655.16;1024496;29;20096;-84
2021/12/14 01:00:25;;;;;;;14.13;8.85;;;;;;;7.38;84.59;102660.50;1023909;29;20054;-84
2021/12/14 01:01:00;;;;;;;15.32;9.05;;;;;;;7.34;84.63;102652.47;1027967;28;20043;-83
2021/12/14 01:01:41;;;;;;;13.43;8.93;;;;;;;7.32;84.44;102656.63;1020050;29;20048;-83
2021/12/14 01:02:16;;;;;;;14.73;8.45;;;;;;;7.31;84.54;102653.16;1024724;29;20134;-83
2021/12/14 01:02:48;;;;;;;14.23;9.73;;;;;;;7.30;84.70;102656.50;1028064;28;20129;-83
2021/12/14 01:03:21;;;;;;;13.20;8.82;;;;;;;7.27;84.59;102656.31;1024941;29;20047;-83
2021/12/14 01:03:56;;;;;;;13.35;8.68;;;;;;;7.33;84.30;102655.88;1028793;28;20053;-83
2021/12/14 01:04:32;;;;;;;13.45;9.02;;;;;;;7.32;84.16;102649.81;1020992;29;20043;-83
2021/12/14 01:05:10;;;;;;;14.27;8.57;;;;;;;7.38;84.50;102659.63;1024947;28;20044;-83
2021/12/14 01:05:45;;;;;;;14.70;9.07;;;;;;;7.34;84.48;102657.63;1032974;28;20043;-84
2021/12/14 01:06:17;;;;;;;12.15;8.50;;;;;;;7.34;84.34;102658.53;1024744;29;20051;-84
2021/12/14 01:06:50;;;;;;;15.07;9.30;;;;;;;7.38;84.25;102663.06;1016880;29;20483;-83
2021/12/14 01:07:23;;;;;;;12.23;8.70;;;;;;;7.44;84.54;102654.88;1021016;29;20048;-83
2021/12/14 01:07:55;;;;;;;13.90;9.40;;;;;;;7.39;84.25;102656.28;1024703;29;20047;-83
2021/12/14 01:08:37;;;;;;;16.65;9.50;;;;;;;7.44;83.83;102650.66;1032981;28;20043;-83
2021/12/14 01:09:09;;;;;;;15.82;9.23;;;;;;;7.47;84.20;102652.53;1024865;29;20047;-83
2021/12/14 01:09:43;;;;;;;16.17;8.90;;;;;;;7.49;83.66;102653.50;1029707;28;20387;-83
2021/12/14 01:10:27;;;;;;;13.57;8.95;;;;;;;7.47;84.27;102655.97;1028881;28;20043;-83
2021/12/14 01:11:12;;;;;;;18.15;9.35;;;;;;;7.45;84.32;102657.53;1028790;28;20046;-84
2021/12/14 01:11:46;;;;;;;16.10;8.57;;;;;;;7.40;84.37;102663.19;1028950;28;20050;-83
2021/12/14 01:12:29;;;;;;;12.65;8.65;;;;;;;7.44;84.21;102649.75;1024863;29;20043;-84
2021/12/14 01:13:05;;;;;;;12.82;8.82;;;;;;;7.33;84.31;102653.28;1028848;28;20053;-84
2021/12/14 01:13:43;;;;;;;15.35;9.60;;;;;;;7.35;84.84;102651.69;1033269;28;20073;-83
2021/12/14 01:15:23;;;;;;;11.00;8.15;;;;;;;7.34;84.76;102647.34;1028783;28;20043;-84
2021/12/14 01:16:13;;;;;;;15.63;8.98;;;;;;;7.24;84.88;102651.88;1027010;28;20054;-83
2021/12/14 01:21:19;;;;;;;18.38;10.02;;;;;;;7.14;86.09;102654.59;1036856;28;20049;-84
2021/12/14 01:22:44;;;;;;;14.27;10.45;;;;;;;7.15;85.57;102659.81;1026633;28;20043;-84
2021/12/14 01:23:27;;;;;;;17.67;9.55;;;;;;;7.20;85.25;102660.13;1024867;28;20131;-84
2021/12/14 01:24:05;;;;;;;14.27;9.93;;;;;;;7.19;85.18;102655.78;1024757;28;20430;-84
2021/12/14 01:25:02;;;;;;;18.77;10.05;;;;;;;7.18;85.87;102664.28;1024917;29;20070;-84
2021/12/14 01:25:36;;;;;;;12.32;9.18;;;;;;;7.19;85.44;102668.59;1029395;28;20047;-83
2021/12/14 01:26:10;;;;;;;12.10;9.02;;;;;;;7.19;85.43;102663.47;1029005;28;20379;-84
2021/12/14 01:26:43;;;;;;;14.82;9.85;;;;;;;7.21;85.63;102667.03;1028881;28;20494;-84
2021/12/14 01:27:17;;;;;;;17.25;10.38;;;;;;;7.23;85.61;102659.44;1024968;28;20557;-84
2021/12/14 01:27:56;;;;;;;16.17;10.25;;;;;;;7.23;85.95;102665.47;1032750;28;20054;-85
2021/12/14 01:28:29;;;;;;;15.48;9.65;;;;;;;7.21;85.68;102667.03;1028615;28;20050;-84
2021/12/14 01:29:01;;;;;;;12.52;9.20;;;;;;;7.22;85.18;102657.69;1025180;29;20047;-84
2021/12/14 01:29:32;;;;;;;12.63;9.45;;;;;;;7.19;85.67;102653.22;1032789;28;20050;-83
2021/12/14 01:30:08;;;;;;;14.02;9.38;;;;;;;7.28;85.55;102658.97;1028889;28;20047;-84
2021/12/14 01:31:35;;;;;;;13.52;10.15;;;;;;;7.18;85.76;102656.59;1028730;28;20553;-84
2021/12/14 01:32:11;;;;;;;15.23;9.27;;;;;;;7.20;85.43;102657.56;1028809;28;20043;-83
2021/12/14 01:32:46;;;;;;;14.98;9.40;;;;;;;7.20;85.92;102654.13;1032866;28;20060;-84
2021/12/14 01:33:21;;;;;;;16.38;9.27;;;;;;;7.22;85.93;102653.44;1028810;28;20042;-83
2021/12/14 01:33:55;;;;;;;16.85;10.30;;;;;;;7.23;86.03;102660.34;1020766;29;20043;-84
2021/12/14 01:34:31;;;;;;;16.55;9.98;;;;;;;7.21;85.63;102653.34;1029393;28;20139;-85
2021/12/14 01:35:12;;;;;;;14.77;9.25;;;;;;;7.24;86.19;102659.56;1032652;28;20038;-84
2021/12/14 01:35:47;;;;;;;14.05;9.23;;;;;;;7.25;85.60;102657.88;1036985;28;20504;-84
2021/12/14 01:37:14;;;;;;;12.52;9.43;;;;;;;7.19;85.77;102653.22;1020977;29;20052;-84
2021/12/14 01:37:59;;;;;;;13.13;9.77;;;;;;;7.21;85.49;102656.78;1024760;29;20073;-84
2021/12/14 01:38:35;;;;;;;13.55;9.65;;;;;;;7.20;86.03;102655.00;1028804;28;20085;-83
2021/12/14 01:40:05;;;;;;;15.32;9.30;;;;;;;7.23;85.92;102650.09;1028824;28;20043;-84
2021/12/14 01:40:56;;;;;;;13.32;9.35;;;;;;;7.22;85.95;102653.44;1024942;29;20043;-84
2021/12/14 01:41:33;;;;;;;14.73;9.38;;;;;;;7.23;86.21;102650.09;1029008;28;20497;-84
2021/12/14 01:42:09;;;;;;;13.90;9.30;;;;;;;7.20;85.54;102642.19;1025617;29;20040;-84
2021/12/14 01:42:42;;;;;;;17.45;9.73;;;;;;;7.24;85.92;102651.88;1029119;28;20162;-83
2021/12/14 01:43:14;;;;;;;13.20;10.07;;;;;;;7.23;86.00;102646.63;1032969;28;20047;-84
2021/12/14 01:43:47;;;;;;;12.68;9.38;;;;;;;7.24;85.81;102646.75;1029411;28;20402;-84
2021/12/14 01:44:26;;;;;;;14.60;9.18;;;;;;;7.24;85.49;102640.72;1025350;29;20534;-83
2021/12/14 01:45:05;;;;;;;12.40;9.77;;;;;;;7.27;85.98;102641.81;1028668;28;20051;-84
2021/12/14 01:45:40;;;;;;;14.55;9.00;;;;;;;7.23;86.07;102644.97;1032935;28;20054;-84
2021/12/14 01:46:18;;;;;;;13.45;9.63;;;;;;;7.21;85.93;102636.28;1024850;29;20062;-84
2021/12/14 01:46:55;;;;;;;16.42;10.38;;;;;;;7.19;86.07;102640.41;1033517;28;20082;-84
2021/12/14 01:47:48;;;;;;;14.38;8.93;;;;;;;7.18;85.97;102630.97;1024961;29;20105;-83
2021/12/14 01:48:38;;;;;;;14.43;10.73;;;;;;;7.18;86.34;102625.84;1025351;29;20146;-84
2021/12/14 01:49:29;;;;;;;13.98;10.73;;;;;;;7.13;86.39;102616.94;1037707;28;20112;-84
2021/12/14 01:50:28;;;;;;;12.65;9.48;;;;;;;7.11;86.61;102618.53;1029647;28;20514;-83
2021/12/14 01:51:14;;;;;;;13.48;9.77;;;;;;;7.12;86.21;102616.06;1026321;29;20051;-83
2021/12/14 01:52:12;;;;;;;14.40;9.45;;;;;;;7.11;86.97;102615.97;1025499;29;20517;-83
2021/12/14 01:52:44;;;;;;;11.70;9.32;;;;;;;7.13;86.68;102617.84;1029561;28;20050;-84
2021/12/14 01:53:16;;;;;;;14.80;10.07;;;;;;;7.16;86.53;102606.91;1033575;28;20043;-83
2021/12/14 01:53:49;;;;;;;13.27;9.18;;;;;;;7.20;86.55;102608.00;1029440;28;20043;-84
2021/12/14 01:54:24;;;;;;;13.18;9.80;;;;;;;7.19;86.55;102609.66;1025039;28;20047;-84
2021/12/14 01:54:58;;;;;;;12.68;9.70;;;;;;;7.19;86.55;102609.66;1025282;28;20055;-83
2021/12/14 01:55:31;;;;;;;17.23;10.07;;;;;;;7.19;86.56;102607.09;1025362;29;20050;-83
2021/12/14 01:56:08;;;;;;;13.18;9.27;;;;;;;7.25;85.97;102607.53;1021179;29;20071;-83
2021/12/14 01:56:40;;;;;;;12.93;9.77;;;;;;;7.23;86.18;102603.97;1029394;28;20043;-84
2021/12/14 01:57:13;;;;;;;14.15;9.73;;;;;;;7.25;86.28;102607.53;1025181;28;20105;-84
2021/12/14 01:57:46;;;;;;;13.38;9.60;;;;;;;7.20;86.33;102598.59;1033643;28;20042;-83
2021/12/14 01:58:18;;;;;;;13.32;9.95;;;;;;;7.20;86.25;102601.19;1029753;28;20537;-83
2021/12/14 01:58:55;;;;;;;12.60;9.23;;;;;;;7.25;85.96;102604.06;1025565;29;20050;-83
2021/12/14 01:59:34;;;;;;;14.95;9.80;;;;;;;7.21;86.11;102595.28;1030248;28;20137;-83
2021/12/14 02:00:09;;;;;;;13.68;9.60;;;;;;;7.21;86.69;102600.41;1026143;29;20047;-82
2021/12/14 02:00:50;;;;;;;11.77;9.52;;;;;;;7.21;86.68;102597.84;1029619;28;20141;-83
2021/12/14 02:01:24;;;;;;;12.23;9.55;;;;;;;7.23;86.14;102592.78;1029799;28;20102;-83
2021/12/14 02:02:49;;;;;;;13.00;8.97;;;;;;;7.19;86.56;102596.81;1029720;28;20042;-83
2021/12/14 02:03:27;;;;;;;14.07;9.43;;;;;;;7.20;86.12;102597.75;1024905;29;20330;-83
2021/12/14 02:04:00;;;;;;;13.95;10.52;;;;;;;7.17;86.56;102595.88;1029696;28;20042;-83
2021/12/14 02:04:33;;;;;;;14.45;10.70;;;;;;;7.18;86.31;102595.09;1029566;28;20043;-83
2021/12/14 02:05:08;;;;;;;12.93;9.77;;;;;;;7.18;86.13;102595.09;1033576;28;20042;-83
2021/12/14 02:05:45;;;;;;;14.93;10.35;;;;;;;7.18;86.32;102592.53;1029094;28;20038;-83
2021/12/14 02:06:19;;;;;;;13.25;10.30;;;;;;;7.19;86.88;102591.72;1029299;28;20047;-83
2021/12/14 02:07:00;;;;;;;14.82;9.98;;;;;;;7.15;86.42;102598.31;1021781;29;20048;-83
2021/12/14 02:07:32;;;;;;;13.18;10.25;;;;;;;7.17;86.34;102598.44;1024813;29;20125;-83
2021/12/14 02:08:12;;;;;;;15.10;10.02;;;;;;;7.19;86.41;102606.22;1028787;28;20043;-84
2021/12/14 02:08:46;;;;;;;13.35;10.20;;;;;;;7.17;86.52;102600.09;1032826;28;20043;-83
2021/12/14 02:09:18;;;;;;;13.02;9.77;;;;;;;7.19;86.71;102601.97;1020843;29;20502;-84
2021/12/14 02:09:56;;;;;;;13.20;9.80;;;;;;;7.19;86.63;102601.97;1029206;28;20371;-84
2021/12/14 02:10:37;;;;;;;13.43;10.27;;;;;;;7.17;86.63;102603.56;1029440;28;20486;-83
2021/12/14 02:11:09;;;;;;;16.05;10.50;;;;;;;7.17;86.63;102603.56;1024679;28;20054;-84
2021/12/14 02:11:47;;;;;;;14.90;9.85;;;;;;;7.19;86.48;102601.97;1032769;28;20054;-84
2021/12/14 02:12:20;;;;;;;12.35;9.82;;;;;;;7.15;86.57;102600.00;1032704;28;20109;-84
2021/12/14 02:12:53;;;;;;;13.07;9.73;;;;;;;7.20;86.98;102598.59;1029534;28;20100;-84
2021/12/14 02:13:46;;;;;;;16.25;11.13;;;;;;;7.19;86.95;102596.81;1028690;28;20035;-84
2021/12/14 02:14:26;;;;;;;14.30;9.87;;;;;;;7.14;86.58;102594.00;1028699;28;20047;-84
2021/12/14 02:15:08;;;;;;;12.77;9.70;;;;;;;7.13;87.11;102592.22;1020575;29;20291;-84
2021/12/14 02:15:43;;;;;;;15.35;9.05;;;;;;;7.15;87.25;102594.88;1028975;28;20535;-83
2021/12/14 02:16:20;;;;;;;14.82;10.80;;;;;;;7.12;87.01;102587.88;1021037;29;20055;-84
2021/12/14 02:17:01;;;;;;;14.80;10.23;;;;;;;7.14;87.15;102583.72;1021072;29;20051;-83
2021/12/14 02:17:33;;;;;;;14.07;9.68;;;;;;;7.13;87.24;102584.50;1028526;28;20050;-83
2021/12/14 02:18:09;;;;;;;17.90;10.05;;;;;;;7.13;87.45;102581.03;1024959;29;20058;-84
2021/12/14 02:18:49;;;;;;;16.00;10.30;;;;;;;7.14;86.95;102582.81;1028681;28;20406;-84
2021/12/14 02:19:21;;;;;;;;;;;;;;;7.12;87.15;102584.38;1025253;28;20134;-84
2021/12/14 02:19:53;;;;;;;13.45;10.05;;;;;;;7.11;87.39;102586.09;1021253;28;19923;-83
2021/12/14 02:20:30;;;;;;;13.63;9.90;;;;;;;7.11;87.20;102592.91;1020913;29;20052;-84
2021/12/14 02:21:08;;;;;;;14.10;9.13;;;;;;;7.15;87.00;102589.75;1028559;28;20422;-84
2021/12/14 02:21:43;;;;;;;12.07;9.32;;;;;;;7.16;87.39;102586.38;1020823;29;20098;-84
2021/12/14 02:22:15;;;;;;;14.95;10.27;;;;;;;7.13;87.08;102588.72;1028668;28;20051;-84
2021/12/14 02:22:47;;;;;;;15.23;10.55;;;;;;;7.12;87.27;102594.66;1024618;28;20079;-84
2021/12/14 02:23:20;;;;;;;14.15;9.93;;;;;;;7.14;87.01;102598.22;1028428;28;20047;-84
2021/12/14 02:23:53;;;;;;;13.75;10.10;;;;;;;7.14;87.27;102594.00;1016562;29;20164;-84
2021/12/14 02:24:25;;;;;;;12.25;9.27;;;;;;;7.15;87.52;102589.75;1028923;28;20502;-84
2021/12/14 02:25:01;;;;;;;14.73;9.73;;;;;;;7.14;87.45;102587.97;1029104;28;20039;-84
2021/12/14 02:25:34;;;;;;;18.92;10.43;;;;;;;7.13;87.22;102592.22;1020723;29;20146;-83
2021/12/14 02:26:07;;;;;;;15.32;10.75;;;;;;;7.13;87.43;102589.66;1024634;29;20043;-84
2021/12/14 02:26:41;;;;;;;13.25;9.95;;;;;;;7.19;86.90;102594.28;1020617;29;20047;-84
2021/12/14 02:27:14;;;;;;;12.40;9.75;;;;;;;7.14;86.97;102604.25;1020549;29;20056;-84
2021/12/14 02:27:49;;;;;;;14.90;10.18;;;;;;;7.11;87.02;102592.91;1017278;29;20081;-84
2021/12/14 02:28:22;;;;;;;13.32;10.35;;;;;;;7.15;87.47;102590.59;1020738;29;20051;-84
2021/12/14 02:28:55;;;;;;;15.32;10.95;;;;;;;7.14;87.14;102588.88;1028403;28;20042;-84
2021/12/14 02:29:30;;;;;;;16.60;10.18;;;;;;;7.15;87.03;102582.03;1028621;28;20051;-84
2021/12/14 02:30:11;;;;;;;14.85;10.38;;;;;;;7.17;87.21;102579.56;1029216;28;20054;-83
2021/12/14 02:30:42;;;;;;;;;;;;;;;7.13;87.39;102575.91;1025376;29;20054;-84
2021/12/14 02:31:16;;;;;;;15.27;11.25;;;;;;;7.15;87.16;102576.91;1032981;28;19929;-83
2021/12/14 02:31:48;;;;;;;15.82;10.52;;;;;;;7.15;87.10;102589.75;1022392;29;20054;-82
2021/12/14 02:32:22;;;;;;;12.02;9.55;;;;;;;7.17;87.25;102588.16;1026803;29;20059;-82
2021/12/14 02:32:55;;;;;;;13.05;10.45;;;;;;;7.19;87.09;102595.97;1019474;29;20051;-83
2021/12/14 02:33:31;;;;;;;13.50;9.77;;;;;;;7.22;86.96;102591.03;1023152;29;20058;-82
2021/12/14 02:34:05;;;;;;;15.48;9.57;;;;;;;7.22;86.95;102588.47;1031486;28;20047;-83
2021/12/14 02:34:38;;;;;;;14.23;10.57;;;;;;;7.18;87.00;102589.97;1031660;28;20130;-83
2021/12/14 02:35:11;;;;;;;12.68;9.95;;;;;;;7.21;87.36;102589.25;1031371;28;20074;-82
2021/12/14 02:35:43;;;;;;;13.02;8.98;;;;;;;7.23;87.33;102587.66;1027411;29;20166;-83
2021/12/14 02:36:35;;;;;;;13.75;9.93;;;;;;;7.15;86.75;102589.75;1027407;29;20043;-85
2021/12/14 02:37:07;;;;;;;14.48;10.38;;;;;;;7.16;87.05;102596.66;1024623;29;20530;-84
2021/12/14 02:37:47;;;;;;;13.80;10.00;;;;;;;7.18;87.25;102591.63;1028630;28;20050;-83
2021/12/14 02:38:19;;;;;;;11.95;10.18;;;;;;;7.17;87.16;102583.03;1024362;29;20641;-84
2021/12/14 02:39:03;;;;;;;14.20;11.07;;;;;;;7.17;87.08;102593.31;1020454;29;20044;-84
2021/12/14 02:40:20;;;;;;;14.80;10.05;;;;;;;7.18;87.13;102591.63;1028595;28;20054;-84
2021/12/14 02:40:59;;;;;;;13.10;10.68;;;;;;;7.17;87.65;102588.16;1020406;29;20043;-84
2021/12/14 02:41:45;;;;;;;15.07;10.70;;;;;;;7.15;87.32;102587.16;1027079;28;20047;-84
2021/12/14 02:42:24;;;;;;;15.93;9.60;;;;;;;7.17;87.11;102592.38;1020664;29;20051;-84
2021/12/14 02:42:56;;;;;;;18.75;9.88;;;;;;;7.19;87.28;102599.41;1028530;28;20413;-84
2021/12/14 02:43:39;;;;;;;12.95;11.13;;;;;;;7.17;87.64;102590.75;1028411;28;20047;-85
2021/12/14 02:44:16;;;;;;;13.95;9.52;;;;;;;7.15;87.53;102594.88;1036687;28;20042;-84
2021/12/14 02:44:49;;;;;;;14.57;10.95;;;;;;;7.17;87.27;102598.44;1028333;28;20407;-84
2021/12/14 02:45:21;;;;;;;15.13;10.63;;;;;;;7.19;87.46;102596.81;1032335;28;20133;-84
2021/12/14 02:46:01;;;;;;;13.77;10.52;;;;;;;7.15;87.76;102592.28;1024454;28;20047;-84
2021/12/14 02:46:39;;;;;;;14.57;11.10;;;;;;;7.17;87.75;102588.16;1028467;28;20054;-84
2021/12/14 02:47:12;;;;;;;15.48;10.80;;;;;;;7.17;87.30;102587.25;1028446;28;20101;-84
2021/12/14 02:47:44;;;;;;;16.80;10.60;;;;;;;7.15;87.59;102587.16;1029042;28;20047;-84
2021/12/14 02:48:16;;;;;;;15.07;11.15;;;;;;;7.14;87.53;102590.50;1024553;29;20043;-84
2021/12/14 02:48:50;;;;;;;14.90;11.07;;;;;;;7.14;87.57;102582.81;1024619;29;20582;-84
2021/12/14 02:49:25;;;;;;;14.45;11.00;;;;;;;7.14;87.62;102582.81;1028651;28;20150;-83
2021/12/14 02:49:57;;;;;;;12.18;9.55;;;;;;;7.16;87.83;102586.38;1028873;28;20077;-83
2021/12/14 02:50:29;;;;;;;15.27;10.43;;;;;;;7.15;87.62;102587.16;1020936;29;20415;-83
2021/12/14 02:51:12;;;;;;;14.10;9.98;;;;;;;7.18;87.55;102584.81;1032623;28;20046;-84
2021/12/14 02:51:50;;;;;;;11.75;9.30;;;;;;;7.17;87.51;102577.00;1020747;29;20053;-84
2021/12/14 02:52:32;;;;;;;16.42;10.60;;;;;;;7.15;87.35;102582.03;1028798;28;20047;-84
2021/12/14 02:53:04;;;;;;;14.07;10.02;;;;;;;7.16;87.22;102581.25;1028680;28;20050;-83
2021/12/14 02:53:37;;;;;;;15.70;10.98;;;;;;;7.16;87.75;102581.25;1028611;28;20529;-84
2021/12/14 02:54:13;;;;;;;13.52;11.02;;;;;;;7.13;87.53;102578.47;1032470;28;20137;-84
2021/12/14 02:54:48;;;;;;;15.45;10.70;;;;;;;7.18;87.21;102577.13;1032583;28;20038;-83
2021/12/14 02:55:22;;;;;;;13.85;10.23;;;;;;;7.18;87.56;102577.13;1024543;28;20051;-84
2021/12/14 02:55:54;;;;;;;16.23;11.18;;;;;;;7.15;87.70;102579.47;1024603;29;20051;-83
2021/12/14 02:56:27;;;;;;;17.92;11.35;;;;;;;7.19;87.45;102580.56;1028339;28;20418;-84
2021/12/14 02:57:08;;;;;;;11.45;9.48;;;;;;;7.19;87.29;102584.00;1032730;28;20061;-83
2021/12/14 02:57:43;;;;;;;13.95;10.68;;;;;;;7.14;87.34;102578.59;1036516;28;20073;-84
2021/12/14 02:58:15;;;;;;;16.38;11.20;;;;;;;7.17;87.90;102583.03;1024539;29;20129;-83
2021/12/14 02:58:47;;;;;;;14.55;10.90;;;;;;;7.13;87.38;102578.47;1020396;29;20067;-84
2021/12/14 02:59:22;;;;;;;12.90;10.38;;;;;;;7.16;87.38;102586.38;1028793;28;20458;-83
2021/12/14 02:59:54;;;;;;;14.15;10.38;;;;;;;7.17;87.23;102583.03;1024555;29;20047;-84
2021/12/14 03:00:29;;;;;;;12.90;10.23;;;;;;;7.18;87.87;102582.25;1028340;28;20054;-84
2021/12/14 03:01:04;;;;;;;12.63;9.43;;;;;;;7.19;88.01;102585.69;1028592;28;20050;-83
2021/12/14 03:01:36;;;;;;;13.05;9.77;;;;;;;7.20;87.35;102583.22;1020392;29;20044;-83
2021/12/14 03:02:12;;;;;;;14.80;10.43;;;;;;;7.24;87.14;102585.22;1024456;29;20047;-83
2021/12/14 03:02:45;;;;;;;13.23;10.18;;;;;;;7.24;87.60;102585.22;1020917;29;20084;-83
2021/12/14 03:03:18;;;;;;;16.40;10.10;;;;;;;7.29;87.46;102582.97;1024250;29;20053;-84
2021/12/14 03:03:49;;;;;;;14.70;10.70;;;;;;;7.32;87.23;102587.41;1020226;29;20542;-84
2021/12/14 03:04:21;;;;;;;13.88;10.32;;;;;;;7.32;87.26;102589.97;1024160;28;20407;-84